createdAt,value
2018-08-31T00:00:47.035Z,2.70
2018-08-31T00:03:20.521Z,2.17
2018-08-31T00:05:59.609Z,1.87
2018-08-31T00:08:38.563Z,2.20
2018-08-31T00:11:14.556Z,1.77
2018-08-31T00:13:42.092Z,2.20
2018-08-31T00:16:09.534Z,1.83
2018-08-31T00:18:36.948Z,2.30
2018-08-31T00:21:04.566Z,2.50
2018-08-31T00:26:01.434Z,2.03
2018-08-31T00:28:40.670Z,1.80
2018-08-31T00:33:28.609Z,2.00
2018-08-31T00:36:27.995Z,2.20
2018-08-31T00:39:08.817Z,1.50
2018-08-31T00:41:50.760Z,2.30
2018-08-31T00:44:30.123Z,2.30
2018-08-31T00:46:57.912Z,2.10
2018-08-31T00:49:25.416Z,1.93
2018-08-31T00:51:52.895Z,2.30
2018-08-31T00:54:20.327Z,2.00
2018-08-31T00:56:47.756Z,1.90
2018-08-31T00:59:15.180Z,2.77
2018-08-31T01:01:42.620Z,2.30
2018-08-31T01:04:10.043Z,1.97
2018-08-31T01:06:37.507Z,1.90
2018-08-31T01:09:05.892Z,2.13
2018-08-31T01:11:33.288Z,1.77
2018-08-31T01:14:00.744Z,1.80
2018-08-31T01:16:28.223Z,2.07
2018-08-31T01:18:55.676Z,2.13
2018-08-31T01:21:23.199Z,1.70
2018-08-31T01:23:50.600Z,1.70
2018-08-31T01:26:18.068Z,2.40
2018-08-31T01:28:46.444Z,2.00
2018-08-31T01:31:13.872Z,1.93
2018-08-31T01:33:41.310Z,2.20
2018-08-31T01:36:08.744Z,2.30
2018-08-31T01:38:36.175Z,1.97
2018-08-31T01:41:03.796Z,2.53
2018-08-31T01:43:31.234Z,2.00
2018-08-31T01:45:58.703Z,2.73
2018-08-31T01:48:26.148Z,2.20
2018-08-31T01:50:59.267Z,1.87
2018-08-31T01:53:28.484Z,2.30
2018-08-31T01:55:56.217Z,2.77
2018-08-31T01:58:23.691Z,2.00
2018-08-31T02:00:51.208Z,1.70
2018-08-31T02:03:18.647Z,2.10
2018-08-31T02:05:46.245Z,2.00
2018-08-31T02:08:13.748Z,2.00
2018-08-31T02:10:41.250Z,2.00
2018-08-31T02:13:08.691Z,2.30
2018-08-31T02:15:36.084Z,2.27
2018-08-31T02:18:03.581Z,2.07
2018-08-31T02:20:31.012Z,1.80
2018-08-31T02:22:58.436Z,1.83
2018-08-31T02:25:25.896Z,1.70
2018-08-31T02:27:53.395Z,1.90
2018-08-31T02:30:20.837Z,1.90
2018-08-31T02:32:48.263Z,1.50
2018-08-31T02:35:15.685Z,1.73
2018-08-31T02:37:43.152Z,1.57
2018-08-31T02:40:10.571Z,2.00
2018-08-31T02:42:38.009Z,2.10
2018-08-31T02:45:05.564Z,2.30
2018-08-31T02:47:33.079Z,2.30
2018-08-31T02:50:01.192Z,3.50
2018-08-31T02:52:28.628Z,2.50
2018-08-31T02:54:56.069Z,3.13
2018-08-31T02:57:23.505Z,2.57
2018-08-31T02:59:51.023Z,2.77
2018-08-31T03:02:18.460Z,2.60
2018-08-31T03:04:45.871Z,2.53
2018-08-31T03:07:13.807Z,2.67
2018-08-31T03:09:41.304Z,2.80
2018-08-31T03:12:08.800Z,2.17
2018-08-31T03:14:36.363Z,2.87
2018-08-31T03:17:03.947Z,2.30
2018-08-31T03:19:31.381Z,2.60
2018-08-31T03:21:58.805Z,2.50
2018-08-31T03:24:26.232Z,2.20
2018-08-31T03:26:53.664Z,2.00
2018-08-31T03:29:21.160Z,2.43
2018-08-31T03:31:48.599Z,2.13
2018-08-31T03:34:16.051Z,2.20
2018-08-31T03:36:43.640Z,2.00
2018-08-31T03:39:11.061Z,1.97
2018-08-31T03:41:38.711Z,1.93
2018-08-31T03:44:06.186Z,2.30
2018-08-31T03:46:33.632Z,2.40
2018-08-31T03:49:01.121Z,2.67
2018-08-31T03:51:28.636Z,2.40
2018-08-31T03:53:56.124Z,2.73
2018-08-31T03:56:23.588Z,2.33
2018-08-31T03:58:51.067Z,3.20
2018-08-31T04:01:18.528Z,2.30
2018-08-31T04:03:46.124Z,2.80
2018-08-31T04:06:13.660Z,2.30
2018-08-31T04:08:41.133Z,2.73
2018-08-31T04:11:08.545Z,2.50
2018-08-31T04:13:35.988Z,2.40
2018-08-31T04:16:03.445Z,2.40
2018-08-31T04:18:30.878Z,2.60
2018-08-31T04:20:58.314Z,2.80
2018-08-31T04:23:25.747Z,2.60
2018-08-31T04:25:53.187Z,2.30
2018-08-31T04:28:20.625Z,2.70
2018-08-31T04:30:48.067Z,2.93
2018-08-31T04:33:15.612Z,2.80
2018-08-31T04:35:43.167Z,2.83
2018-08-31T04:38:10.612Z,3.20
2018-08-31T04:40:38.084Z,3.70
2018-08-31T04:43:05.360Z,2.93
2018-08-31T04:45:32.632Z,2.73
2018-08-31T04:48:00.493Z,3.00
2018-08-31T04:50:27.767Z,2.27
2018-08-31T04:52:55.012Z,3.17
2018-08-31T04:55:22.270Z,3.00
2018-08-31T04:57:49.520Z,3.23
2018-08-31T05:00:16.783Z,2.73
2018-08-31T05:02:44.127Z,3.10
2018-08-31T05:05:11.367Z,2.90
2018-08-31T05:07:38.656Z,2.50
2018-08-31T05:10:05.946Z,3.20
2018-08-31T05:12:33.243Z,3.20
2018-08-31T05:15:00.508Z,2.63
2018-08-31T05:17:27.769Z,2.60
2018-08-31T05:19:55.023Z,3.00
2018-08-31T05:22:22.335Z,2.90
2018-08-31T05:24:50.040Z,2.93
2018-08-31T05:27:17.428Z,3.60
2018-08-31T05:29:44.843Z,25.30
2018-08-31T05:32:13.169Z,6.60
2018-08-31T05:34:40.447Z,4.70
2018-08-31T05:37:07.750Z,4.43
2018-08-31T05:39:34.991Z,3.67
2018-08-31T05:42:02.296Z,3.30
2018-08-31T05:44:29.563Z,3.50
2018-08-31T05:46:56.805Z,3.27
2018-08-31T05:49:24.067Z,3.20
2018-08-31T05:51:51.346Z,2.97
2018-08-31T05:54:18.643Z,3.47
2018-08-31T05:56:46.046Z,3.73
2018-08-31T05:59:13.331Z,4.37
2018-08-31T06:01:40.604Z,3.50
2018-08-31T06:04:07.852Z,4.40
2018-08-31T06:06:35.645Z,4.23
2018-08-31T06:09:03.916Z,4.00
2018-08-31T06:11:31.179Z,3.77
2018-08-31T06:13:58.427Z,3.60
2018-08-31T06:16:25.683Z,4.47
2018-08-31T06:18:52.915Z,4.13
2018-08-31T06:21:20.231Z,4.67
2018-08-31T06:23:47.513Z,5.00
2018-08-31T06:26:14.793Z,5.40
2018-08-31T06:28:42.088Z,5.10
2018-08-31T06:31:09.420Z,5.30
2018-08-31T06:33:36.657Z,5.70
2018-08-31T06:36:04.579Z,5.70
2018-08-31T06:38:31.847Z,5.10
2018-08-31T06:40:59.133Z,6.17
2018-08-31T06:43:26.408Z,6.30
2018-08-31T06:45:53.648Z,5.30
2018-08-31T06:48:20.892Z,5.70
2018-08-31T06:50:48.176Z,5.20
2018-08-31T06:53:15.477Z,6.17
2018-08-31T06:55:42.784Z,7.37
2018-08-31T06:58:10.076Z,7.67
2018-08-31T07:00:37.321Z,7.27
2018-08-31T07:03:04.857Z,6.60
2018-08-31T07:05:32.140Z,7.63
2018-08-31T07:07:59.446Z,8.23
2018-08-31T07:10:26.698Z,6.77
2018-08-31T07:12:53.974Z,7.07
2018-08-31T07:15:21.268Z,6.40
2018-08-31T07:17:48.547Z,6.00
2018-08-31T07:20:15.846Z,6.27
2018-08-31T07:22:43.157Z,4.50
2018-08-31T07:25:10.415Z,4.60
2018-08-31T07:27:37.717Z,4.70
2018-08-31T07:30:05.893Z,5.20
2018-08-31T07:32:33.190Z,4.30
2018-08-31T07:35:00.467Z,4.20
2018-08-31T07:37:27.735Z,3.70
2018-08-31T07:39:55.038Z,4.37
2018-08-31T07:42:22.521Z,3.80
2018-08-31T07:44:49.729Z,6.63
2018-08-31T07:47:17.071Z,3.40
2018-08-31T07:49:44.430Z,2.30
2018-08-31T07:52:11.723Z,2.33
2018-08-31T07:54:39.152Z,1.93
2018-08-31T07:57:06.468Z,1.87
2018-08-31T07:59:34.776Z,2.43
2018-08-31T08:02:02.131Z,1.53
2018-08-31T08:04:29.408Z,1.70
2018-08-31T08:06:56.687Z,1.97
2018-08-31T08:09:23.967Z,1.90
2018-08-31T08:11:51.244Z,1.40
2018-08-31T08:14:18.520Z,1.70
2018-08-31T08:16:45.807Z,2.53
2018-08-31T08:19:13.177Z,1.33
2018-08-31T08:21:40.879Z,2.10
2018-08-31T08:24:08.163Z,1.77
2018-08-31T08:26:35.456Z,1.40
2018-08-31T08:29:02.753Z,1.47
2018-08-31T08:31:30.090Z,1.63
2018-08-31T08:33:57.372Z,2.03
2018-08-31T08:36:24.659Z,2.20
2018-08-31T08:38:52.139Z,1.97
2018-08-31T08:41:19.414Z,2.33
2018-08-31T08:43:46.715Z,2.20
2018-08-31T08:46:14.100Z,2.50
2018-08-31T08:48:41.510Z,2.30
2018-08-31T08:51:08.683Z,2.20
2018-08-31T08:53:35.934Z,2.37
2018-08-31T08:56:03.256Z,2.47
2018-08-31T08:58:30.544Z,2.27
2018-08-31T09:00:57.808Z,1.90
2018-08-31T09:03:25.084Z,2.23
2018-08-31T09:05:52.353Z,2.30
2018-08-31T09:08:19.617Z,2.10
2018-08-31T09:10:46.927Z,2.40
2018-08-31T09:13:14.229Z,2.57
2018-08-31T09:15:41.487Z,3.63
2018-08-31T09:18:08.752Z,3.70
2018-08-31T09:20:36.032Z,3.17
2018-08-31T09:23:03.283Z,2.90
2018-08-31T09:25:30.555Z,2.20
2018-08-31T09:27:57.816Z,2.60
2018-08-31T09:30:30.724Z,2.80
2018-08-31T09:32:58.017Z,2.17
2018-08-31T09:35:25.253Z,2.83
2018-08-31T09:37:52.516Z,3.00
2018-08-31T09:40:19.751Z,3.00
2018-08-31T09:42:47.015Z,3.10
2018-08-31T09:45:14.325Z,2.90
2018-08-31T09:47:41.578Z,2.20
2018-08-31T09:50:08.855Z,1.47
2018-08-31T09:52:36.142Z,1.57
2018-08-31T09:55:03.645Z,1.93
2018-08-31T09:57:31.091Z,1.30
2018-08-31T09:59:58.289Z,1.40
2018-08-31T10:02:31.356Z,1.90
2018-08-31T10:04:58.595Z,1.60
2018-08-31T10:07:25.942Z,1.67
2018-08-31T10:09:53.187Z,1.80
2018-08-31T10:12:20.524Z,1.77
2018-08-31T10:14:47.800Z,1.60
2018-08-31T10:17:15.084Z,2.63
2018-08-31T10:19:42.396Z,2.50
2018-08-31T10:22:09.644Z,2.00
2018-08-31T10:24:36.896Z,1.80
2018-08-31T10:27:05.017Z,2.27
2018-08-31T10:29:32.389Z,3.20
2018-08-31T10:31:59.652Z,2.80
2018-08-31T10:34:26.891Z,2.90
2018-08-31T10:36:54.127Z,3.43
2018-08-31T10:39:21.419Z,4.17
2018-08-31T10:41:48.693Z,3.50
2018-08-31T10:44:15.995Z,2.80
2018-08-31T10:46:43.305Z,2.80
2018-08-31T10:49:10.539Z,3.03
2018-08-31T10:51:37.833Z,2.70
2018-08-31T10:54:05.229Z,2.20
2018-08-31T10:56:32.480Z,2.03
2018-08-31T10:58:59.865Z,1.73
2018-08-31T11:01:27.124Z,1.80
2018-08-31T11:03:54.358Z,1.60
2018-08-31T11:06:21.589Z,2.17
2018-08-31T11:08:48.843Z,2.30
2018-08-31T11:11:16.097Z,1.87
2018-08-31T11:13:43.800Z,1.53
2018-08-31T11:16:11.096Z,1.60
2018-08-31T11:18:38.356Z,1.73
2018-08-31T11:21:05.596Z,1.73
2018-08-31T11:23:32.853Z,1.70
2018-08-31T11:26:00.173Z,1.50
2018-08-31T11:28:27.477Z,1.40
2018-08-31T11:30:54.708Z,1.20
2018-08-31T11:33:21.949Z,1.17
2018-08-31T11:35:49.160Z,1.23
2018-08-31T11:38:16.440Z,1.07
2018-08-31T11:40:44.291Z,1.13
2018-08-31T11:43:11.570Z,1.50
2018-08-31T11:45:38.803Z,1.67
2018-08-31T11:48:06.072Z,2.30
2018-08-31T11:50:33.347Z,2.60
2018-08-31T11:53:00.652Z,2.40
2018-08-31T11:55:27.898Z,2.17
2018-08-31T11:57:55.139Z,1.80
2018-08-31T12:00:22.389Z,2.33
2018-08-31T12:02:49.630Z,2.00
2018-08-31T12:05:16.884Z,1.87
2018-08-31T12:07:44.215Z,1.40
2018-08-31T12:10:11.460Z,1.90
2018-08-31T12:12:38.716Z,2.00
2018-08-31T12:15:06.019Z,2.20
2018-08-31T12:17:33.367Z,2.23
2018-08-31T12:20:00.645Z,1.53
2018-08-31T12:22:27.916Z,1.47
2018-08-31T12:24:55.162Z,1.60
2018-08-31T12:27:22.756Z,1.77
2018-08-31T12:29:50.004Z,1.67
2018-08-31T12:32:17.276Z,1.73
2018-08-31T12:34:44.587Z,2.03
2018-08-31T12:37:11.860Z,1.87
2018-08-31T12:39:39.129Z,1.83
2018-08-31T12:42:06.372Z,1.60
2018-08-31T12:44:33.587Z,2.50
2018-08-31T12:47:00.851Z,2.00
2018-08-31T12:49:28.097Z,1.83
2018-08-31T12:51:55.376Z,1.90
2018-08-31T12:54:22.607Z,1.60
2018-08-31T12:56:49.896Z,1.53
2018-08-31T12:59:17.184Z,1.33
2018-08-31T13:01:44.508Z,1.20
2018-08-31T13:04:11.885Z,1.40
2018-08-31T13:06:39.132Z,1.20
2018-08-31T13:09:06.604Z,1.33
2018-08-31T13:11:33.884Z,1.50
2018-08-31T13:14:01.334Z,1.20
2018-08-31T13:16:28.624Z,1.50
2018-08-31T13:18:55.887Z,1.30
2018-08-31T13:21:23.116Z,1.60
2018-08-31T13:23:50.417Z,1.03
2018-08-31T13:26:17.780Z,1.30
2018-08-31T13:28:45.101Z,0.90
2018-08-31T13:31:12.468Z,1.27
2018-08-31T13:33:39.804Z,1.30
2018-08-31T13:36:07.043Z,1.10
2018-08-31T13:38:34.339Z,1.00
2018-08-31T13:41:01.744Z,1.27
2018-08-31T13:43:29.020Z,1.10
2018-08-31T13:45:56.327Z,1.03
2018-08-31T13:48:23.645Z,1.43
2018-08-31T13:50:50.964Z,1.10
2018-08-31T13:53:18.349Z,1.07
2018-08-31T13:55:45.844Z,1.23
2018-08-31T13:58:13.376Z,1.10
2018-08-31T14:00:40.864Z,0.93
2018-08-31T14:03:08.321Z,1.40
2018-08-31T14:05:36.805Z,1.50
2018-08-31T14:08:04.368Z,1.20
2018-08-31T14:10:31.927Z,1.20
2018-08-31T14:12:59.920Z,3.20
2018-08-31T14:15:27.405Z,0.93
2018-08-31T14:17:55.553Z,1.30
2018-08-31T14:20:22.989Z,1.03
2018-08-31T14:22:50.439Z,0.90
2018-08-31T14:25:17.981Z,0.80
2018-08-31T14:27:46.224Z,1.17
2018-08-31T14:30:13.741Z,1.40
2018-08-31T14:32:41.204Z,1.10
2018-08-31T14:35:08.875Z,1.03
2018-08-31T14:37:38.003Z,1.23
2018-08-31T14:40:06.237Z,1.40
2018-08-31T14:42:33.691Z,1.30
2018-08-31T14:45:01.261Z,1.40
2018-08-31T14:47:28.781Z,1.30
2018-08-31T14:49:56.301Z,1.30
2018-08-31T14:52:23.751Z,1.13
2018-08-31T14:54:53.344Z,1.17
2018-08-31T14:57:20.628Z,1.30
2018-08-31T14:59:48.184Z,1.03
2018-08-31T15:02:15.598Z,1.20
2018-08-31T15:04:43.280Z,1.20
2018-08-31T15:07:10.645Z,1.60
2018-08-31T15:09:42.143Z,1.10
2018-08-31T15:12:09.419Z,1.03
2018-08-31T15:14:36.676Z,1.10
2018-08-31T15:17:04.092Z,0.93
2018-08-31T15:19:31.358Z,1.20
2018-08-31T15:21:58.649Z,1.07
2018-08-31T15:24:27.966Z,1.50
2018-08-31T15:26:55.306Z,1.30
2018-08-31T15:29:22.565Z,1.47
2018-08-31T15:31:49.820Z,1.00
2018-08-31T15:34:17.853Z,1.20
2018-08-31T15:36:45.237Z,1.33
2018-08-31T15:39:16.538Z,1.20
2018-08-31T15:41:43.835Z,0.93
2018-08-31T15:44:11.188Z,1.50
2018-08-31T15:46:38.492Z,1.50
2018-08-31T15:49:05.854Z,1.00
2018-08-31T15:51:37.808Z,1.63
2018-08-31T15:54:05.151Z,1.23
2018-08-31T15:56:32.414Z,1.33
2018-08-31T15:58:59.680Z,1.13
2018-08-31T16:01:26.923Z,1.87
2018-08-31T16:03:54.171Z,1.53
2018-08-31T16:06:21.603Z,1.30
2018-08-31T16:08:48.849Z,1.63
2018-08-31T16:11:16.369Z,1.50
2018-08-31T16:13:46.462Z,1.70
2018-08-31T16:16:14.028Z,1.20
2018-08-31T16:18:41.519Z,1.30
2018-08-31T16:21:08.987Z,1.60
2018-08-31T16:23:37.077Z,1.30
2018-08-31T16:26:04.997Z,1.03
2018-08-31T16:28:32.420Z,1.10
2018-08-31T16:31:00.287Z,1.07
2018-08-31T16:33:27.591Z,1.67
2018-08-31T16:35:55.016Z,1.27
2018-08-31T16:38:22.500Z,1.10
2018-08-31T16:40:49.988Z,1.63
2018-08-31T16:43:17.464Z,1.40
2018-08-31T16:45:45.827Z,1.47
2018-08-31T16:48:13.403Z,1.63
2018-08-31T16:50:40.847Z,1.17
2018-08-31T16:53:08.296Z,1.47
2018-08-31T16:55:35.708Z,1.50
2018-08-31T16:58:03.160Z,1.60
2018-08-31T17:00:30.645Z,1.70
2018-08-31T17:02:58.129Z,1.80
2018-08-31T17:05:25.589Z,1.30
2018-08-31T17:07:53.071Z,1.17
2018-08-31T17:10:20.478Z,1.20
2018-08-31T17:12:47.942Z,1.40
2018-08-31T17:15:15.449Z,1.60
2018-08-31T17:17:43.031Z,1.40
2018-08-31T17:20:10.492Z,1.43
2018-08-31T17:22:37.943Z,1.50
2018-08-31T17:25:06.268Z,1.43
2018-08-31T17:27:39.432Z,1.40
2018-08-31T17:30:13.068Z,1.50
2018-08-31T17:32:46.175Z,1.50
2018-08-31T17:35:19.976Z,1.43
2018-08-31T17:37:50.728Z,1.60
2018-08-31T17:40:17.981Z,1.53
2018-08-31T17:42:45.254Z,1.53
2018-08-31T17:45:17.096Z,1.60
2018-08-31T17:47:45.024Z,1.67
2018-08-31T17:50:12.431Z,2.30
2018-08-31T17:52:39.887Z,2.63
2018-08-31T17:55:07.524Z,2.00
2018-08-31T17:57:34.796Z,2.50
2018-08-31T18:00:02.263Z,1.90
2018-08-31T18:02:29.716Z,2.57
2018-08-31T18:04:57.369Z,2.30
2018-08-31T18:07:24.849Z,2.00
2018-08-31T18:09:53.396Z,1.90
2018-08-31T18:12:20.705Z,2.10
2018-08-31T18:14:47.984Z,2.00
2018-08-31T18:17:15.293Z,1.80
2018-08-31T18:19:42.913Z,2.00
2018-08-31T18:22:10.251Z,1.63
2018-08-31T18:24:37.527Z,2.33
2018-08-31T18:27:05.357Z,1.30
2018-08-31T18:29:33.827Z,1.10
2018-08-31T18:32:01.115Z,1.57
2018-08-31T18:34:28.355Z,1.50
2018-08-31T18:36:55.615Z,1.57
2018-08-31T18:39:23.075Z,1.17
2018-08-31T18:41:50.536Z,1.30
2018-08-31T18:44:18.033Z,1.40
2018-08-31T18:46:45.568Z,1.13
2018-08-31T18:49:12.849Z,1.10
2018-08-31T18:51:40.307Z,1.60
2018-08-31T18:54:12.841Z,1.70
2018-08-31T18:56:40.147Z,1.00
2018-08-31T18:59:07.472Z,1.70
2018-08-31T19:01:34.734Z,0.80
2018-08-31T19:04:02.081Z,1.20
2018-08-31T19:06:29.348Z,1.50
2018-08-31T19:08:56.600Z,1.10
2018-08-31T19:11:24.183Z,1.13
2018-08-31T19:13:51.741Z,1.30
2018-08-31T19:16:19.260Z,1.50
2018-08-31T19:18:46.698Z,1.60
2018-08-31T19:21:14.143Z,1.40
2018-08-31T19:23:41.568Z,1.77
2018-08-31T19:26:09.716Z,1.30
2018-08-31T19:28:37.214Z,1.60
2018-08-31T19:31:04.713Z,1.70
2018-08-31T19:33:32.174Z,1.57
2018-08-31T19:35:59.616Z,1.40
2018-08-31T19:38:27.290Z,1.13
2018-08-31T19:40:54.798Z,1.67
2018-08-31T19:43:23.063Z,1.50
2018-08-31T19:45:50.619Z,1.93
2018-08-31T19:48:18.118Z,1.50
2018-08-31T19:50:45.602Z,1.93
2018-08-31T19:53:18.924Z,1.30
2018-08-31T19:55:46.171Z,1.50
2018-08-31T19:58:13.409Z,1.60
2018-08-31T20:00:40.758Z,1.37
2018-08-31T20:03:08.137Z,1.30
2018-08-31T20:05:35.490Z,1.70
2018-08-31T20:08:02.965Z,1.57
2018-08-31T20:10:30.400Z,1.03
2018-08-31T20:12:57.664Z,1.50
2018-08-31T20:15:25.085Z,1.20
2018-08-31T20:17:52.430Z,1.30
2018-08-31T20:20:19.655Z,1.93
2018-08-31T20:22:46.998Z,1.60
2018-08-31T20:25:14.492Z,1.73
2018-08-31T20:27:42.007Z,1.70
2018-08-31T20:30:09.556Z,1.83
2018-08-31T20:32:37.003Z,1.50
2018-08-31T20:35:08.663Z,2.00
2018-08-31T20:37:37.002Z,1.90
2018-08-31T20:40:04.908Z,1.70
2018-08-31T20:42:33.164Z,2.20
2018-08-31T20:45:00.630Z,2.07
2018-08-31T20:47:27.906Z,2.17
2018-08-31T20:49:55.281Z,2.00
2018-08-31T20:52:29.716Z,2.20
2018-08-31T20:54:57.031Z,2.00
2018-08-31T20:57:25.168Z,2.00
2018-08-31T20:59:52.519Z,1.90
2018-08-31T21:02:19.829Z,1.90
2018-08-31T21:04:48.076Z,2.20
2018-08-31T21:07:15.326Z,2.10
2018-08-31T21:09:42.563Z,1.97
2018-08-31T21:12:09.860Z,2.30
2018-08-31T21:14:37.079Z,2.77
2018-08-31T21:17:04.311Z,3.10
2018-08-31T21:19:48.901Z,3.30
2018-08-31T21:22:16.308Z,3.47
2018-08-31T21:24:43.648Z,4.80
2018-08-31T21:27:10.932Z,6.13
2018-08-31T21:29:38.228Z,6.73
2018-08-31T21:32:05.718Z,5.73
2018-08-31T21:34:38.907Z,5.30
2018-08-31T21:37:06.177Z,5.00
2018-08-31T21:39:37.035Z,4.57
2018-08-31T21:42:05.025Z,4.07
2018-08-31T21:44:33.284Z,4.60
2018-08-31T21:47:00.559Z,4.37
2018-08-31T21:49:28.387Z,3.60
2018-08-31T21:51:55.659Z,4.40
2018-08-31T21:54:22.963Z,4.07
2018-08-31T21:56:50.255Z,4.57
2018-08-31T21:59:17.519Z,3.90
2018-08-31T22:01:50.804Z,3.33
2018-08-31T22:04:18.200Z,3.70
2018-08-31T22:06:45.473Z,3.73
2018-08-31T22:09:12.775Z,3.40
2018-08-31T22:11:40.035Z,3.70
2018-08-31T22:14:07.295Z,3.30
2018-08-31T22:16:34.553Z,3.70
2018-08-31T22:19:01.835Z,3.20
2018-08-31T22:21:29.167Z,3.20
2018-08-31T22:23:56.562Z,3.50
2018-08-31T22:26:23.878Z,3.13
2018-08-31T22:28:51.123Z,4.10
2018-08-31T22:31:18.367Z,3.60
2018-08-31T22:33:45.696Z,3.53
2018-08-31T22:36:13.047Z,3.10
2018-08-31T22:38:40.372Z,3.70
2018-08-31T22:41:07.635Z,3.47
2018-08-31T22:43:40.929Z,4.03
2018-08-31T22:46:07.931Z,3.50
2018-08-31T22:48:35.192Z,3.50
2018-08-31T22:51:02.479Z,4.20
2018-08-31T22:53:29.784Z,3.77
2018-08-31T22:55:57.079Z,3.27
2018-08-31T22:58:24.340Z,3.70
2018-08-31T23:00:52.106Z,3.60
2018-08-31T23:03:19.364Z,3.63
2018-08-31T23:05:46.682Z,3.57
2018-08-31T23:08:14.619Z,3.77
2018-08-31T23:10:41.879Z,3.37
2018-08-31T23:13:09.139Z,3.43
2018-08-31T23:15:36.429Z,3.63
2018-08-31T23:18:04.203Z,3.90
2018-08-31T23:20:31.433Z,3.30
2018-08-31T23:23:04.349Z,3.80
2018-08-31T23:25:37.243Z,3.40
2018-08-31T23:28:04.551Z,3.50
2018-08-31T23:30:31.828Z,3.93
2018-08-31T23:32:59.171Z,3.63
2018-08-31T23:35:26.491Z,3.37
2018-08-31T23:37:53.741Z,3.93
2018-08-31T23:40:21.008Z,3.10
2018-08-31T23:42:48.277Z,3.10
2018-08-31T23:45:15.514Z,4.13
2018-08-31T23:47:42.818Z,3.70
2018-08-31T23:50:10.080Z,4.10
2018-08-31T23:52:37.344Z,3.77
2018-08-31T23:55:04.620Z,3.83
2018-08-31T23:57:31.867Z,3.80
2018-08-31T23:59:59.127Z,4.30
